Latest Weather Observations for Gladstone Airport

IDQ60801

Issued at 10:02 am EST Saturday 28 March 2015 (issued every 30 minutes, with the page automatically refreshed every 10 minutes)

About weather observations | Map of weather stations | Latest weather observations for QLD | Other Formats
Station Details ID: 039326 Name: GLADSTONE AIRPORT Lat: -23.87 Lon: 151.22 Height: 16.6 m
Data from the previous 72 hours. | See also: Recent months at Gladstone Airport
Date/Time
EST
Temp
°C
App
Temp
°C
Dew
Point
Rel
Hum
%
Delta-T
°C
Wind Press
QNH
hPa
Press
MSL
hPa
Rain
since 9 am
mm
Dir
 
Spd
km/h
Gust
km/h
Spd
kts
Gust
kts
28/10:00am 28.1 29.1 21.1 65 4.6 ESE 17 26 9 14 1019.3 1019.3 0.0
28/09:30am 28.0 29.8 21.8 69 4.2 ESE 15 20 8 11 1019.3 1019.3 0.0
28/09:00am 27.3 30.9 22.3 74 3.4 SE 7 15 4 8 1019.3 1019.3 1.2
28/08:30am 26.5 30.1 22.3 78 2.8 S 7 11 4 6 1019.1 1019.0 1.2
28/08:00am 26.1 29.9 22.8 82 2.2 S 7 11 4 6 1018.9 1018.8 1.2
28/07:30am 24.7 28.0 22.6 88 1.4 SSW 9 11 5 6 1018.6 1018.5 1.2
28/07:13am 24.4 27.6 22.3 88 1.4 SSW 9 13 5 7 1018.3 1018.2 1.2
28/07:00am 24.3 27.5 22.4 89 1.3 S 9 15 5 8 1018.2 1018.1 1.2
28/06:53am 24.3 27.8 22.2 88 1.4 S 7 9 4 5 1018.1 1018.0 0.8
28/06:30am 24.0 27.5 21.9 88 1.4 SSW 6 9 3 5 1017.9 1017.8 0.2
28/06:00am 23.7 26.9 21.6 88 1.4 SW 7 11 4 6 1017.3 1017.2 0.2
28/05:30am 23.8 26.7 21.7 88 1.4 SSW 9 13 5 7 1017.1 1017.0 0.2
28/05:00am 24.2 27.4 21.7 86 1.7 SSW 7 9 4 5 1016.9 1016.8 0.2
28/04:30am 24.3 27.6 21.8 86 1.7 SSW 7 9 4 5 1016.6 1016.5 0.2
28/04:00am 24.5 27.8 21.8 85 1.8 SSW 7 9 4 5 1016.5 1016.4 0.2
28/03:30am 25.1 28.6 21.8 82 2.2 SSW 6 7 3 4 1016.3 1016.2 0.2
28/03:00am 26.1 28.9 20.9 73 3.4 ENE 7 11 4 6 1016.4 1016.3 0.2
28/02:30am 25.9 28.0 20.9 74 3.3 ENE 11 15 6 8 1016.4 1016.3 0.0
28/02:00am 26.2 28.5 21.4 75 3.2 NE 11 17 6 9 1016.6 1016.5 0.0
28/01:30am 26.1 28.4 21.3 75 3.2 ENE 11 17 6 9 1016.9 1016.8 0.0
28/01:00am 26.3 28.7 21.5 75 3.2 ENE 11 15 6 8 1017.2 1017.1 0.0
28/12:30am 25.7 29.3 22.4 82 2.2 ESE 7 9 4 5 1017.2 1017.1 0.0
 
Date/Time
EST
Temp
°C
App
Temp
°C
Dew
Point
Rel
Hum
%
Delta-T
°C
Wind Press
QNH
hPa
Press
MSL
hPa
Rain
since 9 am
mm
Dir
 
Spd
km/h
Gust
km/h
Spd
kts
Gust
kts
27/11:30pm 26.7 29.6 22.5 78 2.8 E 11 17 6 9 1017.7 1017.6 0.0
27/11:00pm 27.0 29.9 21.7 73 3.5 ENE 9 13 5 7 1017.9 1017.8 0.0
27/10:30pm 26.9 29.5 21.9 74 3.3 ENE 11 15 6 8 1017.9 1017.8 0.0
27/10:00pm 27.0 29.4 22.2 75 3.2 NE 13 17 7 9 1017.9 1017.8 0.0
27/09:30pm 27.1 30.2 22.1 74 3.4 E 9 11 5 6 1017.9 1017.8 0.0
27/09:00pm 27.0 30.0 21.3 71 3.8 ESE 7 9 4 5 1017.8 1017.7 0.0
27/08:30pm 27.2 29.8 21.2 69 4.0 ENE 9 11 5 6 1017.6 1017.5 0.0
27/08:00pm 27.2 29.6 20.8 68 4.2 ENE 9 11 5 6 1017.3 1017.2 0.0
27/07:30pm 27.3 30.0 20.6 67 4.4 ENE 7 11 4 6 1017.1 1017.0 0.0
27/07:00pm 27.6 29.8 20.4 65 4.7 ENE 9 15 5 8 1016.4 1016.3 0.0
27/06:30pm 27.7 29.5 20.3 64 4.9 ENE 11 13 6 7 1016.2 1016.1 0.0
27/06:00pm 28.0 29.4 20.3 63 5.1 NE 13 17 7 9 1015.8 1015.7 0.0
27/05:30pm 28.4 29.5 19.6 59 5.7 NE 13 17 7 9 1015.3 1015.2 0.0
27/05:00pm 29.1 29.6 20.0 58 6.0 ENE 17 20 9 11 1015.1 1015.0 0.0
27/04:30pm 29.9 30.2 19.6 54 6.7 ENE 17 20 9 11 1014.8 1014.7 0.0
27/04:00pm 30.3 30.5 19.3 51 7.2 ENE 17 24 9 13 1014.8 1014.7 0.0
27/03:30pm 30.3 30.5 19.3 51 7.2 NE 17 24 9 13 1014.8 1014.7 0.0
27/03:00pm 31.1 31.4 20.4 53 7.1 NE 19 24 10 13 1014.9 1014.8 0.0
27/02:30pm 31.4 31.5 20.0 50 7.5 ENE 19 24 10 13 1015.0 1014.9 0.0
27/02:00pm 31.1 31.3 20.1 52 7.3 ENE 19 26 10 14 1015.4 1015.3 0.0
27/01:30pm 30.6 31.0 19.9 52 7.0 ENE 17 26 9 14 1015.8 1015.7 0.0
27/01:00pm 31.2 32.3 20.5 53 7.1 NE 15 32 8 17 1016.2 1016.1 0.0
27/12:30pm 30.6 30.8 19.3 51 7.4 ENE 17 24 9 13 1016.6 1016.5 0.0
27/12:00pm 31.1 32.5 20.4 53 7.1 NE 13 22 7 12 1017.4 1017.3 0.0
27/11:30am 30.4 31.8 20.3 54 6.7 ENE 13 20 7 11 1018.0 1017.9 0.0
27/11:00am 30.7 31.9 20.0 52 7.0 ENE 13 22 7 12 1018.5 1018.4 0.0
27/10:30am 29.8 31.3 20.6 57 6.1 N 13 20 7 11 1018.9 1018.8 0.0
27/10:00am 28.7 32.0 21.5 65 4.8 SW 6 9 3 5 1019.2 1019.1 0.0
27/09:30am 28.0 31.2 21.3 67 4.5 W 6 11 3 6 1019.3 1019.3 0.0
27/09:00am 27.9 31.2 21.4 67 4.3 W 6 9 3 5 1019.1 1019.0 0.0
27/08:30am 27.1 31.5 22.1 74 3.4 S 2 6 1 3 1019.1 1019.0 0.0
27/08:00am 26.5 29.7 21.7 75 3.2 SSW 7 9 4 5 1019.1 1019.0 0.0
27/07:30am 24.6 27.1 21.1 81 2.3 SSW 9 13 5 7 1019.0 1018.9 0.0
27/07:00am 23.7 26.2 21.0 85 1.8 SSW 9 13 5 7 1018.6 1018.5 0.0
27/06:30am 23.0 25.3 20.7 87 1.5 SW 9 13 5 7 1018.3 1018.2 0.0
27/06:00am 22.6 24.8 20.5 88 1.4 SW 9 13 5 7 1018.0 1017.9 0.0
27/05:30am 22.8 25.2 20.9 89 1.2 SSW 9 13 5 7 1017.7 1017.6 0.0
27/05:00am 22.7 24.9 20.4 87 1.5 SSW 9 13 5 7 1017.6 1017.5 0.0
27/04:30am 22.9 25.2 20.6 87 1.5 SSW 9 11 5 6 1017.1 1017.0 0.0
27/04:00am 23.3 26.2 21.0 87 1.5 SW 7 11 4 6 1016.8 1016.7 0.0
27/03:30am 23.3 25.8 21.0 87 1.5 SSW 9 13 5 7 1016.9 1016.8 0.0
27/03:00am 23.1 25.4 20.6 86 1.6 SSW 9 13 5 7 1016.9 1016.8 0.0
27/02:30am 23.4 25.7 20.7 85 1.8 SSW 9 11 5 6 1016.9 1016.8 0.0
27/02:00am 23.6 25.9 20.7 84 1.9 SSW 9 11 5 6 1017.1 1017.0 0.0
27/01:30am 24.2 27.0 20.9 82 2.2 SSW 7 9 4 5 1017.3 1017.2 0.0
27/01:00am 24.4 28.6 20.9 81 2.3 CALM 0 0 0 0 1017.5 1017.4 0.0
27/12:30am 24.7 28.9 21.0 80 2.4 CALM 0 0 0 0 1017.8 1017.7 0.0
27/12:00am 25.3 28.6 21.4 79 2.6 SE 6 7 3 4 1018.0 1017.9 0.0
 
Date/Time
EST
Temp
°C
App
Temp
°C
Dew
Point
Rel
Hum
%
Delta-T
°C
Wind Press
QNH
hPa
Press
MSL
hPa
Rain
since 9 am
mm
Dir
 
Spd
km/h
Gust
km/h
Spd
kts
Gust
kts
26/11:30pm 25.3 28.5 21.2 78 2.7 SSE 6 7 3 4 1018.1 1018.0 0.0
26/11:00pm 26.1 29.4 21.5 76 3.1 ENE 6 7 3 4 1018.2 1018.1 0.0
26/10:30pm 25.8 30.1 21.2 76 3.0 CALM 0 0 0 0 1018.2 1018.1 0.0
26/10:00pm 25.9 29.4 21.1 75 3.2 SSE 4 6 2 3 1018.5 1018.4 0.0
26/09:30pm 26.6 29.7 21.1 72 3.6 E 6 9 3 5 1018.5 1018.4 0.0
26/09:00pm 26.9 30.0 21.4 72 3.7 ENE 7 11 4 6 1018.4 1018.3 0.0
26/08:30pm 27.1 30.2 21.4 71 3.8 ENE 7 11 4 6 1018.1 1018.0 0.0
26/08:00pm 27.2 29.7 21.0 69 4.1 ENE 9 13 5 7 1017.6 1017.5 0.0
26/07:30pm 27.3 29.5 21.1 69 4.1 NE 11 15 6 8 1017.1 1017.0 0.0
26/07:00pm 27.4 29.5 21.0 68 4.2 NE 11 17 6 9 1016.9 1016.8 0.0
26/06:30pm 27.6 28.9 20.9 67 4.4 NE 15 19 8 10 1016.4 1016.3 0.0
26/06:00pm 27.8 29.0 20.6 65 4.7 NE 15 20 8 11 1016.1 1016.0 0.0
26/05:30pm 28.5 29.5 20.2 60 5.5 NE 15 20 8 11 1015.9 1015.8 0.0
26/05:00pm 29.0 29.7 19.6 57 6.1 NE 15 19 8 10 1015.7 1015.6 0.0
26/04:30pm 29.6 29.9 18.7 52 7.0 NE 15 24 8 13 1015.5 1015.4 0.0
26/04:00pm 29.9 30.4 19.3 53 6.9 ENE 15 20 8 11 1015.3 1015.2 0.0
26/03:30pm 30.7 31.4 19.7 52 7.2 NE 15 20 8 11 1015.4 1015.3 0.0
26/03:00pm 30.5 30.4 17.9 47 8.1 ENE 15 20 8 11 1015.3 1015.2 0.0
26/02:30pm 30.5 29.8 16.5 43 8.8 NE 15 19 8 10 1015.7 1015.6 0.0
26/02:00pm 30.5 29.4 14.2 37 9.9 ENE 13 22 7 12 1016.0 1015.9 0.0
26/01:30pm 30.8 30.0 16.0 40 9.2 NE 15 22 8 12 1016.2 1016.1 0.0
26/01:00pm 31.2 30.2 17.5 44 8.7 ENE 19 26 10 14 1016.6 1016.5 0.0
26/12:30pm 30.2 29.9 17.3 46 8.2 NE 15 20 8 11 1017.1 1017.0 0.0
26/12:00pm 29.7 30.2 20.0 56 6.4 ENE 17 22 9 12 1017.7 1017.6 0.0
26/11:30am 29.9 30.6 20.5 57 6.2 ENE 17 24 9 13 1018.1 1018.0 0.0
26/11:00am 29.6 30.6 20.2 57 6.2 NE 15 22 8 12 1018.4 1018.3 0.0
26/10:30am 29.4 30.0 19.4 55 6.5 ENE 15 20 8 11 1018.7 1018.6 0.0
26/10:00am 29.3 30.4 20.5 59 5.8 NE 15 22 8 12 1018.7 1018.6 0.0
26/09:30am 28.2 29.2 20.2 62 5.3 NNE 15 20 8 11 1018.8 1018.7 0.0
26/09:00am 28.5 29.6 20.5 62 5.3 NNE 15 20 8 11 1018.6 1018.5 0.0
26/08:30am 27.8 29.1 20.1 63 5.0 NNE 13 17 7 9 1018.4 1018.3 0.0
26/08:00am 26.2 30.3 21.6 76 3.1 N 2 7 1 4 1018.1 1018.0 0.0
26/07:30am 25.5 29.3 21.6 79 2.6 SSW 4 6 2 3 1017.8 1017.7 0.0
26/07:00am 24.7 28.2 21.8 84 1.9 SSW 6 7 3 4 1017.5 1017.4 0.0
26/06:30am 23.2 26.1 21.1 88 1.4 SSW 7 11 4 6 1017.3 1017.2 0.0
26/06:00am 22.9 25.9 20.8 88 1.4 SSW 6 7 3 4 1016.8 1016.7 0.0
26/05:30am 22.9 25.9 20.8 88 1.4 SSW 6 9 3 5 1016.4 1016.3 0.0
26/05:00am 23.0 27.1 20.7 87 1.5 CALM 0 0 0 0 1016.1 1016.0 0.0
26/04:30am 23.3 27.4 20.8 86 1.6 CALM 0 0 0 0 1015.9 1015.8 0.0
26/04:00am 23.4 27.3 21.1 87 1.5 SSW 2 7 1 4 1015.8 1015.7 0.0
26/03:30am 23.5 27.7 21.0 86 1.6 CALM 0 0 0 0 1015.6 1015.5 0.0
26/03:00am 23.6 26.6 21.3 87 1.5 SSW 7 11 4 6 1015.5 1015.4 0.0
26/02:30am 23.7 26.7 21.2 86 1.6 SSW 7 9 4 5 1015.6 1015.5 0.0
26/02:00am 23.8 26.5 21.3 86 1.6 SSW 9 11 5 6 1015.9 1015.8 0.0
26/01:30am 24.2 28.1 21.1 83 2.0 SW 2 7 1 4 1016.0 1015.9 0.0
26/01:00am 24.7 27.8 21.4 82 2.2 SSW 7 9 4 5 1016.2 1016.1 0.0
26/12:30am 25.1 28.9 21.6 81 2.3 ESE 4 7 2 4 1016.1 1016.0 0.0
26/12:00am 25.2 28.3 21.5 80 2.5 SW 7 9 4 5 1016.3 1016.2 0.0
 
Date/Time
EST
Temp
°C
App
Temp
°C
Dew
Point
Rel
Hum
%
Delta-T
°C
Wind Press
QNH
hPa
Press
MSL
hPa
Rain
since 9 am
mm
Dir
 
Spd
km/h
Gust
km/h
Spd
kts
Gust
kts
25/11:30pm 26.4 29.6 21.6 75 3.2 NNE 7 9 4 5 1016.1 1016.0 0.0
25/11:00pm 26.5 29.3 21.5 74 3.3 N 9 11 5 6 1016.3 1016.2 0.0
25/10:30pm 26.7 29.9 21.7 74 3.3 N 7 11 4 6 1016.3 1016.2 0.0
25/10:00pm 26.8 29.6 21.5 72 3.5 NNE 9 13 5 7 1016.5 1016.4 0.0
25/09:30pm 26.9 29.7 21.6 72 3.5 NNE 9 13 5 7 1016.5 1016.4 0.0
25/09:00pm 27.0 29.9 21.7 73 3.5 NNE 9 13 5 7 1016.6 1016.5 0.0
25/08:30pm 27.1 29.6 21.8 73 3.5 NNE 11 13 6 7 1016.3 1016.2 0.0
25/08:00pm 27.2 30.1 21.7 72 3.7 NNE 9 13 5 7 1016.1 1016.0 0.0
25/07:30pm 27.4 29.5 21.7 71 3.8 NNE 13 17 7 9 1015.7 1015.6 0.0
25/07:00pm 27.5 29.5 21.5 70 4.0 NNE 13 17 7 9 1015.2 1015.1 0.0
25/06:30pm 27.7 29.7 21.5 69 4.1 NNE 13 19 7 10 1014.9 1014.8 0.0
25/06:00pm 28.1 29.1 21.1 65 4.7 NE 17 20 9 11 1014.5 1014.4 0.0
25/05:30pm 29.0 30.0 20.2 59 5.8 NE 15 20 8 11 1014.3 1014.2 0.0
25/05:00pm 29.2 29.1 19.5 56 6.3 NE 19 22 10 12 1013.9 1013.8 0.0
25/04:30pm 30.1 30.5 20.6 56 6.3 NE 19 22 10 12 1013.7 1013.6 0.0
25/04:00pm 30.1 29.9 19.8 54 6.8 NE 20 26 11 14 1013.6 1013.5 0.0
25/03:30pm 30.8 30.9 20.4 54 6.9 NE 20 26 11 14 1013.7 1013.6 0.0
25/03:00pm 30.9 31.2 20.8 55 6.7 NE 20 28 11 15 1013.7 1013.6 0.0
25/02:30pm 30.1 30.6 21.2 59 6.0 NE 20 28 11 15 1013.9 1013.8 0.0
25/02:00pm 30.1 29.9 20.6 56 6.3 NE 22 30 12 16 1014.1 1014.0 0.0
25/01:30pm 31.0 31.0 20.9 55 6.7 NE 22 30 12 16 1014.4 1014.3 0.0
25/01:00pm 30.5 31.1 21.3 58 6.2 NE 20 28 11 15 1014.6 1014.5 0.0
25/12:30pm 30.0 30.5 20.8 57 6.1 NE 19 26 10 14 1014.9 1014.8 0.0
25/12:00pm 30.2 30.8 21.0 58 6.1 NNE 19 24 10 13 1015.4 1015.3 0.0
25/11:30am 29.6 31.1 21.3 61 5.6 NNE 15 24 8 13 1015.9 1015.8 0.0
25/11:00am 29.1 31.5 20.8 61 5.5 N 9 19 5 10 1016.4 1016.3 0.0
25/10:30am 29.0 31.5 21.0 62 5.3 N 9 17 5 9 1016.6 1016.5 0.0

Other Formats:

Comma delimited format used in spreadsheet applications
http://www.bom.gov.au/fwo/IDQ60801/IDQ60801.94381.axf

JavaScript Object Notation format (JSON) in row-major order
http://www.bom.gov.au/fwo/IDQ60801/IDQ60801.94381.json